Etusivu
METAR-TAF:

METAR-TAF

Lentoasemat :

Ringkøbing-Skjern, Tanska

Leveyspiiri: 56-00N, Pituuspiiri: 008-21E, korkeus merenpinnasta: 5 m

Tämänhetkinen sää

Tämä raportti tehtiin 19 minuuttia sitten, kello 06.20 UTC
Tuuli 10 kn idästä/kaakosta
Lämpötila 15°C
Kosteus 94%
Ilmanpaine 1010 hPa
Näkyvyys 10 km tai enemmän
Muutamia pilviä 6000 ft:n korkeudessa
Hajonneita pilviä 10000 ft:n korkeudessa

METAR: EKVJ 240620Z 12010KT 9999 FEW060 BKN100 15/14 Q1010

Aika: 08:39 (06:39 UTC)

Sääennuste

Tämä raportti tehtiin 21 tuntia ja 49 minuuttia sitten, kello 08.50 UTC
Ennuste voimassa 23. päivästä klo 09 UTC - 23. päivään klo 15 UTC
Tuuli 6 kn idästä
Näkyvyys 10 km tai enemmän
Muutamia pilviä 4000 ft:n korkeudessa

TAF: EKVJ 230850Z 2309/2315 10006KT 9999 FEW040

Säähavainnot ja -ennusteet yli 4000 lentoasemalta (METAR- ja TAF-raportit).

Käytössä olevat sääasemat on merkitty karttaan keltaisilla ja punaisilla pisteillä.

Aseta hiiri pisteen päälle nähdäksesi sääaseman nimen.

Klikkaa sitten nähdäksesi säähavainnot ja -ennusteet.

Kartan vaihtaminen: klikkaa mustalla rastilla varustettuja vihreitä pisteitä, niin voit zoomata sisään; viivalla varustettua vihreää pistettä, niin voit zoomata ulos tai vihreitä nuolia, niin pääset viereisille kartoille.


METAR-TAF: